createdAt,value
2018-01-02T17:12:34.300Z,3.40
2018-01-02T17:15:05.188Z,3.40
2018-01-02T17:17:32.692Z,3.40
2018-01-02T17:20:12.260Z,3.40
2018-01-02T17:22:40.660Z,3.40
2018-01-02T17:25:08.172Z,3.40
2018-01-02T17:27:36.444Z,3.60
2018-01-02T17:30:08.600Z,3.60
2018-01-02T17:32:40.208Z,3.60
2018-01-02T17:35:07.736Z,3.60
2018-01-02T17:37:38.828Z,3.60
2018-01-02T17:40:07.228Z,3.60
2018-01-02T17:42:35.516Z,3.60
2018-01-02T17:45:04.792Z,3.50
2018-01-02T17:47:39.252Z,3.50
2018-01-02T17:50:06.756Z,3.50
2018-01-02T17:52:42.195Z,3.50
2018-01-02T17:55:20.788Z,3.40
2018-01-02T17:57:48.308Z,3.40
2018-01-02T18:00:20.448Z,3.40
2018-01-02T18:02:54.524Z,3.30
2018-01-02T18:05:22.028Z,3.30
2018-01-02T18:07:50.492Z,3.30
2018-01-02T18:10:22.592Z,3.20
2018-01-02T18:12:51.616Z,3.30
2018-01-02T18:15:19.124Z,3.30
2018-01-02T18:17:50.452Z,3.30
2018-01-02T18:20:23.404Z,3.30
2018-01-02T18:23:01.324Z,3.20
2018-01-02T18:25:29.740Z,3.20
2018-01-02T18:30:53.668Z,3.10
2018-01-02T18:33:33.556Z,3.10
2018-01-02T18:36:20.096Z,3.10
2018-01-02T18:38:48.508Z,3.20
2018-01-02T18:41:16.048Z,3.20
2018-01-02T18:43:52.532Z,3.10
2018-01-02T18:46:22.991Z,3.00
2018-01-02T18:48:59.208Z,3.00
2018-01-02T18:51:36.015Z,2.90
2018-01-02T18:54:04.960Z,2.90
2018-01-02T18:56:33.772Z,2.90
2018-01-02T18:59:01.796Z,2.90
2018-01-02T19:01:29.811Z,2.90
2018-01-02T19:04:04.255Z,2.90
2018-01-02T19:06:32.267Z,2.80
2018-01-02T19:09:01.288Z,2.80
2018-01-02T19:11:29.356Z,2.80
2018-01-02T19:13:59.380Z,2.80
2018-01-02T19:16:27.400Z,2.70
2018-01-02T19:18:56.340Z,2.60
2018-01-02T19:21:30.661Z,2.40
2018-01-02T19:24:03.903Z,2.30
2018-01-02T19:26:36.915Z,2.30
2018-01-02T19:29:06.648Z,2.30
2018-01-02T19:31:34.743Z,2.30
2018-01-02T19:34:06.407Z,2.30
2018-01-02T19:36:34.459Z,2.30
2018-01-02T19:39:02.503Z,2.20
2018-01-02T19:41:35.155Z,2.30
2018-01-02T19:44:03.191Z,2.30
2018-01-02T19:46:34.488Z,2.30
2018-01-02T19:49:20.751Z,2.20
2018-01-02T19:51:50.323Z,2.20
2018-01-02T19:54:20.795Z,2.20
2018-01-02T19:56:50.767Z,2.20
2018-01-02T19:59:23.920Z,2.20
2018-01-02T20:01:53.775Z,2.20
2018-01-02T20:04:22.196Z,2.20
2018-01-02T20:06:50.247Z,2.20
2018-01-02T20:09:18.291Z,2.20
2018-01-02T20:11:56.815Z,2.20
2018-01-02T20:14:24.895Z,2.10
2018-01-02T20:16:52.899Z,2.10
2018-01-02T20:19:21.879Z,2.10
2018-01-02T20:21:51.891Z,2.00
2018-01-02T20:24:23.791Z,2.00
2018-01-02T20:26:58.284Z,1.90
2018-01-02T20:29:27.679Z,1.90
2018-01-02T20:31:56.963Z,1.80
2018-01-02T20:34:25.014Z,1.80
2018-01-02T20:36:59.479Z,1.80
2018-01-02T20:39:30.611Z,1.90
2018-01-02T20:42:01.731Z,1.90
2018-01-02T20:44:33.719Z,1.80
2018-01-02T20:47:01.803Z,1.80
2018-01-02T20:49:31.299Z,1.70
2018-01-02T20:52:03.783Z,1.60
2018-01-02T20:54:33.055Z,1.70
2018-01-02T20:57:06.946Z,1.70
2018-01-02T20:59:35.691Z,1.80
2018-01-02T21:02:05.103Z,1.80
2018-01-02T21:04:36.859Z,1.90
2018-01-02T21:07:05.390Z,2.00
2018-01-02T21:09:36.927Z,2.10
2018-01-02T21:12:08.314Z,2.20
2018-01-02T21:14:36.455Z,2.20
2018-01-02T21:17:08.182Z,2.20
2018-01-02T21:19:37.586Z,2.20
2018-01-02T21:22:07.563Z,2.20
2018-01-02T21:24:35.671Z,2.20
2018-01-02T21:27:04.982Z,2.20
2018-01-02T21:29:33.983Z,2.20
2018-01-02T21:32:02.059Z,2.20
2018-01-02T21:34:31.031Z,2.20
2018-01-02T21:37:00.103Z,2.20
2018-01-02T21:39:32.094Z,2.20
2018-01-02T21:42:05.150Z,2.20
2018-01-02T21:44:37.118Z,2.30
2018-01-02T21:47:09.255Z,2.30
2018-01-02T21:49:38.295Z,2.30
2018-01-02T21:52:08.290Z,2.30
2018-01-02T21:54:38.463Z,2.40
2018-01-02T21:57:18.264Z,2.30
2018-01-02T21:59:54.573Z,2.40
2018-01-02T22:02:23.588Z,2.40
2018-01-02T22:04:51.674Z,2.40
2018-01-02T22:07:20.706Z,2.30
2018-01-02T22:09:53.443Z,2.30
2018-01-02T22:12:22.408Z,2.30
2018-01-02T22:14:52.506Z,2.30
2018-01-02T22:17:22.302Z,2.30
2018-01-02T22:19:50.372Z,2.30
2018-01-02T22:22:18.466Z,2.20
2018-01-02T22:24:47.422Z,2.30
2018-01-02T22:27:15.462Z,2.30
2018-01-02T22:29:46.250Z,2.30
2018-01-02T22:32:16.266Z,2.20
2018-01-02T22:34:44.402Z,2.30
2018-01-02T22:37:12.422Z,2.30
2018-01-02T22:39:43.722Z,2.20
2018-01-02T22:42:11.746Z,2.20
2018-01-02T22:44:39.810Z,2.20
2018-01-02T22:47:08.170Z,2.10
2018-01-02T22:49:37.278Z,2.20
2018-01-02T22:52:06.318Z,2.20
2018-01-02T22:54:36.326Z,2.20
2018-01-02T22:57:05.366Z,2.20
2018-01-02T22:59:41.338Z,2.20
2018-01-02T23:02:11.822Z,2.30
2018-01-02T23:04:39.898Z,2.30
2018-01-02T23:07:07.967Z,2.40
2018-01-02T23:09:54.841Z,2.50
2018-01-02T23:12:26.178Z,2.60
2018-01-02T23:14:59.323Z,2.70
2018-01-02T23:17:29.269Z,2.80
2018-01-02T23:20:00.462Z,2.80
2018-01-02T23:22:28.507Z,2.90
2018-01-02T23:24:57.874Z,2.90
2018-01-02T23:27:26.921Z,2.90
2018-01-02T23:29:54.986Z,2.90
2018-01-02T23:32:23.929Z,2.90
2018-01-02T23:34:51.961Z,2.90
2018-01-02T23:37:19.994Z,2.90
2018-01-02T23:39:49.730Z,2.90
2018-01-02T23:42:17.930Z,2.90
2018-01-02T23:44:50.934Z,2.90
2018-01-02T23:47:20.790Z,2.90
2018-01-02T23:49:53.282Z,2.90
2018-01-02T23:52:21.554Z,2.90
2018-01-02T23:55:01.754Z,3.00
2018-01-02T23:57:30.530Z,3.00
